Time;durP1;ratioP1;P1;durP2;ratioP2;P2;SDS_P1;SDS_P2;PMS_P1;PMS_P2;Temp;Humidity;BMP_temperature;BMP_pressure;BME280_temperature;BME280_humidity;BME280_pressure;Samples;Min_cycle;Max_cycle;Signal;HPM_P1;HPM_P2
2021/12/09 00:00:15;;;;;;;16.65;10.48;;;;;;;-144.99;100.00;57660.31;344879;28;1089;-69
2021/12/09 00:00:35;;;;;;;18.73;10.70;;;;;;;-144.99;100.00;57660.31;344766;28;1099;-68
2021/12/09 00:00:52;;;;;;;17.65;10.98;;;;;;;-144.99;100.00;57660.31;344868;28;1083;-69
2021/12/09 00:01:07;;;;;;;16.88;11.48;;;;;;;-144.99;100.00;57660.31;344598;28;2159;-69
2021/12/09 00:01:23;;;;;;;20.90;11.70;;;;;;;-144.99;100.00;57660.31;344936;28;1062;-68
2021/12/09 00:01:39;;;;;;;22.13;12.10;;;;;;;-144.99;100.00;57660.31;344926;28;1251;-68
2021/12/09 00:01:51;;;;;;;20.60;12.00;;;;;;;-144.99;100.00;57660.31;344119;28;2106;-69
2021/12/09 00:02:04;;;;;;;20.20;11.63;;;;;;;-144.99;100.00;57660.31;344803;28;1665;-69
2021/12/09 00:02:20;;;;;;;19.92;11.13;;;;;;;-144.99;100.00;57660.31;344913;28;1015;-68
2021/12/09 00:02:33;;;;;;;20.98;11.40;;;;;;;-144.99;100.00;57660.31;344810;28;1260;-68
2021/12/09 00:02:45;;;;;;;18.88;11.05;;;;;;;-144.99;100.00;57660.31;343765;28;1872;-69
2021/12/09 00:02:58;;;;;;;17.00;10.30;;;;;;;-144.99;100.00;57660.31;344630;28;1433;-69
2021/12/09 00:03:13;;;;;;;17.25;10.43;;;;;;;-144.99;100.00;57660.31;344909;28;1050;-68
2021/12/09 00:03:27;;;;;;;16.00;10.07;;;;;;;-144.99;100.00;57660.31;343575;28;1023;-69
2021/12/09 00:03:40;;;;;;;15.63;9.85;;;;;;;-144.99;100.00;57660.31;343237;28;1109;-68
2021/12/09 00:03:56;;;;;;;15.98;10.05;;;;;;;-144.99;100.00;57660.31;343304;28;1039;-68
2021/12/09 00:04:14;;;;;;;16.48;10.10;;;;;;;-144.99;100.00;57660.31;343626;28;1557;-68
2021/12/09 00:04:30;;;;;;;15.98;9.95;;;;;;;-144.99;100.00;57660.31;343096;28;1348;-68
2021/12/09 00:04:42;;;;;;;16.83;10.60;;;;;;;-144.99;100.00;57660.31;344274;28;1820;-68
2021/12/09 00:04:56;;;;;;;18.13;10.88;;;;;;;-144.99;100.00;57660.31;344790;28;1106;-69
2021/12/09 00:05:11;;;;;;;18.75;10.80;;;;;;;-144.99;100.00;57660.31;343691;28;1205;-68
2021/12/09 00:05:23;;;;;;;18.02;11.05;;;;;;;-144.99;100.00;57660.31;343489;28;1313;-68
2021/12/09 00:05:36;;;;;;;16.83;10.85;;;;;;;-144.99;100.00;57660.31;343328;28;1070;-69
2021/12/09 00:05:49;;;;;;;16.88;10.52;;;;;;;-144.99;100.00;57660.31;343711;28;1205;-69
2021/12/09 00:06:03;;;;;;;16.13;9.80;;;;;;;-144.99;100.00;57660.31;343491;28;1208;-69
2021/12/09 00:06:18;;;;;;;16.42;9.98;;;;;;;-144.99;100.00;57660.31;343388;28;1841;-68
2021/12/09 00:06:31;;;;;;;15.80;10.20;;;;;;;-144.99;100.00;57660.31;344721;28;1695;-69
2021/12/09 00:06:44;;;;;;;15.32;10.23;;;;;;;-144.99;100.00;57660.31;344861;28;1076;-69
2021/12/09 00:06:59;;;;;;;17.73;10.82;;;;;;;-144.99;100.00;57660.31;344644;28;1805;-69
2021/12/09 00:07:11;;;;;;;18.33;11.27;;;;;;;-144.99;100.00;57660.31;344783;28;1313;-69
2021/12/09 00:07:24;;;;;;;18.73;11.77;;;;;;;-144.99;100.00;57660.31;344988;28;1262;-69
2021/12/09 00:07:36;;;;;;;18.67;11.73;;;;;;;-144.99;100.00;57660.31;344817;28;1590;-68
2021/12/09 00:07:51;;;;;;;16.98;11.30;;;;;;;-144.99;100.00;57660.31;344988;28;1027;-68
2021/12/09 00:08:05;;;;;;;18.15;11.80;;;;;;;-144.99;100.00;57660.31;344907;28;1868;-68
2021/12/09 00:08:17;;;;;;;18.40;12.10;;;;;;;-144.99;100.00;57660.31;344742;28;1913;-69
2021/12/09 00:08:30;;;;;;;17.73;11.55;;;;;;;-144.99;100.00;57660.31;344822;28;1159;-68
2021/12/09 00:08:42;;;;;;;18.75;11.32;;;;;;;-144.99;100.00;57660.31;344684;28;1125;-68
2021/12/09 00:08:56;;;;;;;19.50;11.07;;;;;;;-144.99;100.00;57660.31;344887;28;1208;-70
2021/12/09 00:09:13;;;;;;;19.05;11.15;;;;;;;-144.99;100.00;57660.31;343537;28;1156;-68
2021/12/09 00:09:25;;;;;;;17.48;10.90;;;;;;;-144.99;100.00;57660.31;343202;28;1084;-69
2021/12/09 00:09:37;;;;;;;18.02;11.02;;;;;;;-144.99;100.00;57660.31;343617;28;1841;-70
2021/12/09 00:09:50;;;;;;;18.83;11.20;;;;;;;-144.99;100.00;57660.31;344078;28;2043;-68
2021/12/09 00:10:06;;;;;;;19.23;11.27;;;;;;;-144.99;100.00;57660.31;344409;28;1789;-68
2021/12/09 00:10:19;;;;;;;18.50;10.93;;;;;;;-144.99;100.00;57660.31;344297;28;1969;-68
2021/12/09 00:10:31;;;;;;;17.27;10.95;;;;;;;-144.99;100.00;57660.31;343473;28;1022;-69
2021/12/09 00:10:43;;;;;;;16.65;10.90;;;;;;;-144.99;100.00;57660.31;343430;28;1035;-69
2021/12/09 00:10:58;;;;;;;17.02;11.27;;;;;;;-144.99;100.00;57660.31;344440;28;2000;-69
2021/12/09 00:11:10;;;;;;;18.42;11.35;;;;;;;-144.99;100.00;57660.31;344832;28;1132;-68
2021/12/09 00:11:23;;;;;;;17.02;11.10;;;;;;;-144.99;100.00;57660.31;344610;28;1118;-68
2021/12/09 00:11:43;;;;;;;16.30;11.43;;;;;;;-144.99;100.00;57660.31;344772;28;1067;-70
2021/12/09 00:11:55;;;;;;;17.50;11.82;;;;;;;-144.99;100.00;57660.31;344739;28;1043;-69
2021/12/09 00:12:08;;;;;;;18.20;11.52;;;;;;;-144.99;100.00;57660.31;343527;28;1039;-68
2021/12/09 00:12:22;;;;;;;22.13;11.90;;;;;;;-144.99;100.00;57660.31;343132;28;1120;-70
2021/12/09 00:12:36;;;;;;;23.30;12.00;;;;;;;-144.99;100.00;57660.31;342719;28;2149;-69
2021/12/09 00:12:48;;;;;;;19.00;11.25;;;;;;;-144.99;100.00;57660.31;343414;28;1138;-69
2021/12/09 00:13:02;;;;;;;19.70;10.95;;;;;;;-144.99;100.00;57660.31;344054;28;1615;-69
2021/12/09 00:13:14;;;;;;;18.48;11.00;;;;;;;-144.99;100.00;57660.31;344767;28;1246;-68
2021/12/09 00:13:27;;;;;;;18.98;11.38;;;;;;;-144.99;100.00;57660.31;344927;28;1190;-68
2021/12/09 00:13:40;;;;;;;18.08;11.55;;;;;;;-144.99;100.00;57660.31;345027;28;1219;-68
2021/12/09 00:13:52;;;;;;;19.65;11.82;;;;;;;-144.99;100.00;57660.31;344294;28;2362;-68
2021/12/09 00:14:04;;;;;;;19.88;11.73;;;;;;;-144.99;100.00;57660.31;343882;28;1848;-68
2021/12/09 00:14:20;;;;;;;19.98;11.70;;;;;;;-144.99;100.00;57660.31;344635;28;1089;-70
2021/12/09 00:14:34;;;;;;;18.55;11.57;;;;;;;-144.99;100.00;57660.31;344535;28;1340;-68
2021/12/09 00:14:46;;;;;;;17.58;11.43;;;;;;;-144.99;100.00;57660.31;344611;28;1122;-68
2021/12/09 00:14:58;;;;;;;18.12;11.10;;;;;;;-144.99;100.00;57660.31;343366;28;2094;-68
2021/12/09 00:15:11;;;;;;;19.75;11.30;;;;;;;-144.99;100.00;57660.31;344824;28;1115;-68
2021/12/09 00:15:23;;;;;;;17.58;11.25;;;;;;;-144.99;100.00;57660.31;344946;28;1022;-69
2021/12/09 00:15:35;;;;;;;16.15;11.38;;;;;;;-144.99;100.00;57660.31;344533;28;1066;-69
2021/12/09 00:15:48;;;;;;;17.42;10.88;;;;;;;-144.99;100.00;57660.31;345007;28;1038;-69
2021/12/09 00:16:00;;;;;;;18.60;10.75;;;;;;;-144.99;100.00;57660.31;344661;28;1989;-69
2021/12/09 00:16:12;;;;;;;18.25;10.93;;;;;;;-144.99;100.00;57660.31;343898;28;2122;-68
2021/12/09 00:16:24;;;;;;;17.60;11.00;;;;;;;-144.99;100.00;57660.31;344839;28;1458;-68
2021/12/09 00:16:37;;;;;;;16.85;10.77;;;;;;;-144.99;100.00;57660.31;343918;28;2345;-68
2021/12/09 00:16:50;;;;;;;15.77;10.05;;;;;;;-144.99;100.00;57660.31;344785;28;1052;-68
2021/12/09 00:17:07;;;;;;;15.52;9.60;;;;;;;-144.99;100.00;57660.31;344707;28;1851;-68
2021/12/09 00:17:19;;;;;;;17.05;9.73;;;;;;;-144.99;100.00;57660.31;344879;28;1055;-69
2021/12/09 00:17:32;;;;;;;17.27;9.82;;;;;;;-144.99;100.00;57660.31;343761;28;2091;-69
2021/12/09 00:17:44;;;;;;;16.13;9.93;;;;;;;-144.99;100.00;57660.31;344422;28;2089;-68
2021/12/09 00:17:56;;;;;;;16.42;9.77;;;;;;;-144.99;100.00;57660.31;344737;28;1278;-68
2021/12/09 00:18:08;;;;;;;15.20;9.50;;;;;;;-144.99;100.00;57660.31;344143;28;2376;-68
2021/12/09 00:18:20;;;;;;;15.40;9.35;;;;;;;-144.99;100.00;57660.31;344789;28;1043;-68
2021/12/09 00:18:33;;;;;;;16.10;9.18;;;;;;;-144.99;100.00;57660.31;344638;28;1153;-68
2021/12/09 00:18:45;;;;;;;16.52;8.82;;;;;;;-144.99;100.00;57660.31;344675;28;1083;-68
2021/12/09 00:18:59;;;;;;;15.02;8.57;;;;;;;-144.99;100.00;57660.31;344754;28;2231;-68
2021/12/09 00:19:12;;;;;;;12.50;8.35;;;;;;;-144.99;100.00;57660.31;344096;28;2398;-69
2021/12/09 00:19:24;;;;;;;12.07;7.97;;;;;;;-144.99;100.00;57660.31;344790;28;1058;-68
2021/12/09 00:19:38;;;;;;;12.30;7.70;;;;;;;-144.99;100.00;57660.31;344901;28;1116;-68
2021/12/09 00:19:50;;;;;;;12.30;7.45;;;;;;;-144.99;100.00;57660.31;344292;28;1793;-68
2021/12/09 00:20:04;;;;;;;12.52;7.72;;;;;;;-144.99;100.00;57660.31;344451;28;1107;-69
2021/12/09 00:20:18;;;;;;;12.38;7.65;;;;;;;-144.99;100.00;57660.31;344863;28;985;-68
2021/12/09 00:20:30;;;;;;;11.90;7.10;;;;;;;-144.99;100.00;57660.31;344310;28;2574;-68
2021/12/09 00:20:45;;;;;;;12.40;6.78;;;;;;;-144.99;100.00;57660.31;343348;28;999;-69
2021/12/09 00:20:57;;;;;;;11.63;6.43;;;;;;;-144.99;100.00;57660.31;343681;28;1650;-68
2021/12/09 00:21:11;;;;;;;10.32;5.80;;;;;;;-144.99;100.00;57660.31;344674;28;1278;-69
2021/12/09 00:21:23;;;;;;;9.80;5.40;;;;;;;-144.99;100.00;57660.31;344742;28;1051;-69
2021/12/09 00:21:35;;;;;;;9.98;5.50;;;;;;;-144.99;100.00;57660.31;344886;28;1015;-69
2021/12/09 00:21:47;;;;;;;11.98;5.82;;;;;;;-144.99;100.00;57660.31;344829;28;1087;-69
2021/12/09 00:22:01;;;;;;;13.30;5.55;;;;;;;-144.99;100.00;57660.31;344641;28;1907;-68
2021/12/09 00:22:13;;;;;;;13.68;5.03;;;;;;;-144.99;100.00;57660.31;344480;28;2174;-68
2021/12/09 00:22:27;;;;;;;14.10;4.80;;;;;;;-144.99;100.00;57660.31;343553;28;1024;-68
2021/12/09 00:22:39;;;;;;;13.45;4.75;;;;;;;-144.99;100.00;57660.31;343457;28;1076;-69
2021/12/09 00:22:51;;;;;;;12.10;4.80;;;;;;;-144.99;100.00;57660.31;344644;28;1854;-69
2021/12/09 00:23:03;;;;;;;9.88;4.68;;;;;;;-144.99;100.00;57660.31;344976;28;1658;-69
2021/12/09 00:23:16;;;;;;;10.95;4.60;;;;;;;-144.99;100.00;57660.31;344861;28;1061;-68
2021/12/09 00:23:28;;;;;;;11.55;4.50;;;;;;;-144.99;100.00;57660.31;344268;28;2791;-68
2021/12/09 00:23:40;;;;;;;10.80;4.45;;;;;;;-144.99;100.00;57660.31;345024;28;1658;-68
2021/12/09 00:23:52;;;;;;;9.30;4.40;;;;;;;-144.99;100.00;57660.31;344997;28;1271;-69
2021/12/09 00:24:04;;;;;;;9.73;4.35;;;;;;;-144.99;100.00;57660.31;344227;28;2019;-68
2021/12/09 00:24:17;;;;;;;9.93;4.25;;;;;;;-144.99;100.00;57660.31;344135;28;1974;-69
2021/12/09 00:24:29;;;;;;;11.10;4.65;;;;;;;-144.99;100.00;57660.31;344129;28;1858;-68
2021/12/09 00:24:41;;;;;;;10.25;4.78;;;;;;;-144.99;100.00;57660.31;345079;28;1271;-69
2021/12/09 00:24:53;;;;;;;8.57;4.47;;;;;;;-144.99;100.00;57660.31;344901;28;1032;-68
2021/12/09 00:25:06;;;;;;;7.13;4.45;;;;;;;-144.99;100.00;57660.31;344947;28;1674;-68
2021/12/09 00:25:18;;;;;;;8.68;4.57;;;;;;;-144.99;100.00;57660.31;345104;28;1063;-68
2021/12/09 00:25:30;;;;;;;9.93;4.63;;;;;;;-144.99;100.00;57660.31;343880;28;1893;-68
2021/12/09 00:25:42;;;;;;;10.20;4.57;;;;;;;-144.99;100.00;57660.31;344870;28;2244;-68
2021/12/09 00:25:54;;;;;;;10.82;4.78;;;;;;;-144.99;100.00;57660.31;345085;28;1093;-68
2021/12/09 00:26:07;;;;;;;9.50;4.75;;;;;;;-144.99;100.00;57660.31;343851;28;1255;-69
2021/12/09 00:26:19;;;;;;;8.73;4.80;;;;;;;-144.99;100.00;57660.31;343647;28;1128;-68
2021/12/09 00:26:31;;;;;;;9.35;4.85;;;;;;;-144.99;100.00;57660.31;343600;28;1080;-68
2021/12/09 00:26:46;;;;;;;9.60;4.78;;;;;;;-144.99;100.00;57660.31;343833;28;1038;-69
2021/12/09 00:26:58;;;;;;;9.20;5.00;;;;;;;-144.99;100.00;57660.31;344093;28;1589;-69
2021/12/09 00:27:10;;;;;;;8.63;5.03;;;;;;;-144.99;100.00;57660.31;344199;28;2167;-67
2021/12/09 00:27:22;;;;;;;8.65;4.88;;;;;;;-144.99;100.00;57660.31;343819;28;1063;-68
2021/12/09 00:27:34;;;;;;;9.57;4.75;;;;;;;-144.99;100.00;57660.31;343729;28;1099;-68
2021/12/09 00:27:47;;;;;;;8.90;4.70;;;;;;;-144.99;100.00;57660.31;344788;28;2041;-68
2021/12/09 00:27:59;;;;;;;8.40;4.80;;;;;;;-144.99;100.00;57660.31;344410;28;2014;-70
2021/12/09 00:28:11;;;;;;;11.02;5.03;;;;;;;-144.99;100.00;57660.31;344780;28;1808;-69
2021/12/09 00:28:23;;;;;;;14.90;5.30;;;;;;;-144.99;100.00;57660.31;345087;28;1322;-69
2021/12/09 00:28:35;;;;;;;14.82;5.40;;;;;;;-144.99;100.00;57660.31;345113;28;1061;-69
2021/12/09 00:28:48;;;;;;;10.90;5.40;;;;;;;-144.99;100.00;57660.31;345103;28;1048;-69
2021/12/09 00:29:00;;;;;;;9.95;5.57;;;;;;;-144.99;100.00;57660.31;344968;28;1649;-68
2021/12/09 00:29:15;;;;;;;10.60;5.68;;;;;;;-144.99;100.00;57660.31;344994;28;1277;-69
2021/12/09 00:29:27;;;;;;;10.48;5.53;;;;;;;-144.99;100.00;57660.31;344376;28;2050;-68
2021/12/09 00:29:39;;;;;;;10.85;5.18;;;;;;;-144.99;100.00;57660.31;344881;28;1067;-68
2021/12/09 00:29:51;;;;;;;11.10;5.30;;;;;;;-144.99;100.00;57660.31;345108;28;1308;-68
2021/12/09 00:30:05;;;;;;;12.05;5.68;;;;;;;-144.99;100.00;57660.31;344366;28;1954;-68
2021/12/09 00:30:17;;;;;;;11.38;6.00;;;;;;;-144.99;100.00;57660.31;344897;28;1028;-68
2021/12/09 00:30:30;;;;;;;11.75;6.05;;;;;;;-144.99;100.00;57660.31;343976;28;2154;-69
2021/12/09 00:30:42;;;;;;;11.98;6.00;;;;;;;-144.99;100.00;57660.31;344204;28;1780;-68
2021/12/09 00:30:54;;;;;;;12.65;5.88;;;;;;;-144.99;100.00;57660.31;345068;28;1318;-68
2021/12/09 00:31:06;;;;;;;12.23;6.00;;;;;;;-144.99;100.00;57660.31;343805;28;1051;-68
2021/12/09 00:31:19;;;;;;;11.77;5.93;;;;;;;-144.99;100.00;57660.31;343557;28;1066;-68
2021/12/09 00:31:31;;;;;;;13.65;5.95;;;;;;;-144.99;100.00;57660.31;343695;28;1262;-68
2021/12/09 00:31:44;;;;;;;12.48;6.07;;;;;;;-144.99;100.00;57660.31;343752;28;2349;-69
2021/12/09 00:31:56;;;;;;;11.05;6.28;;;;;;;-144.99;100.00;57660.31;343629;28;1547;-69
2021/12/09 00:32:08;;;;;;;11.55;6.47;;;;;;;-144.99;100.00;57660.31;344870;28;1899;-69
2021/12/09 00:32:21;;;;;;;13.20;6.47;;;;;;;-144.99;100.00;57660.31;345133;28;1050;-69
2021/12/09 00:32:33;;;;;;;12.98;6.50;;;;;;;-144.99;100.00;57660.31;344403;28;1823;-68
2021/12/09 00:32:45;;;;;;;12.95;6.43;;;;;;;-144.99;100.00;57660.31;345134;28;1226;-69
2021/12/09 00:32:59;;;;;;;12.27;6.32;;;;;;;-144.99;100.00;57660.31;344832;28;1594;-68
2021/12/09 00:33:11;;;;;;;13.27;6.47;;;;;;;-144.99;100.00;57660.31;345018;28;1245;-69
2021/12/09 00:33:23;;;;;;;12.85;6.35;;;;;;;-144.99;100.00;57660.31;344925;28;1047;-69
2021/12/09 00:33:41;;;;;;;12.43;6.65;;;;;;;-144.99;100.00;57660.31;344982;28;1133;-68
2021/12/09 00:33:56;;;;;;;13.27;6.90;;;;;;;-144.99;100.00;57660.31;344386;28;2387;-69
2021/12/09 00:34:08;;;;;;;14.32;6.72;;;;;;;-144.99;100.00;57660.31;343528;28;2355;-70
2021/12/09 00:34:29;;;;;;;13.32;7.07;;;;;;;-144.99;100.00;57660.31;343646;28;1792;-68
2021/12/09 00:34:45;;;;;;;15.60;7.97;;;;;;;-144.99;100.00;57660.31;344786;28;1040;-68
2021/12/09 00:34:57;;;;;;;15.43;7.75;;;;;;;-144.99;100.00;57660.31;345108;28;1248;-68
2021/12/09 00:35:12;;;;;;;15.48;7.18;;;;;;;-144.99;100.00;57660.31;344982;28;1099;-68
2021/12/09 00:35:31;;;;;;;14.50;7.00;;;;;;;-144.99;100.00;57660.31;344822;28;1120;-68
2021/12/09 00:35:54;;;;;;;12.52;7.03;;;;;;;-144.99;100.00;57660.31;344867;28;1107;-68
2021/12/09 00:36:06;;;;;;;11.55;7.03;;;;;;;-144.99;100.00;57660.31;344976;28;1347;-68
2021/12/09 00:36:27;;;;;;;14.35;7.68;;;;;;;-144.99;100.00;57660.31;344962;28;1217;-68
2021/12/09 00:36:55;;;;;;;14.07;7.68;;;;;;;-144.99;100.00;57660.31;345008;28;1288;-68
2021/12/09 00:37:30;;;;;;;13.02;7.72;;;;;;;-144.99;100.00;57660.31;344902;28;1344;-68
2021/12/09 00:38:07;;;;;;;14.70;8.02;;;;;;;-144.99;100.00;57660.31;344909;28;1051;-68
2021/12/09 00:38:49;;;;;;;14.43;8.38;;;;;;;-144.99;100.00;57660.31;343683;28;2150;-69
2021/12/09 00:38:55;;;;;;;14.52;7.88;;;;;;;-144.99;100.00;57660.31;341674;28;2331;-69
2021/12/09 00:39:10;;;;;;;15.65;8.15;;;;;;;-144.99;100.00;57660.31;345042;28;2186;-68
2021/12/09 00:39:22;;;;;;;14.73;8.43;;;;;;;-144.99;100.00;57660.31;344958;28;1401;-68
2021/12/09 00:39:34;;;;;;;16.75;9.05;;;;;;;-144.99;100.00;57660.31;344814;28;1289;-69
2021/12/09 00:39:51;;;;;;;17.15;9.27;;;;;;;-144.99;100.00;57660.31;344608;28;2094;-69
2021/12/09 00:40:04;;;;;;;14.50;8.32;;;;;;;-144.99;100.00;57660.31;344824;28;1834;-68
2021/12/09 00:40:16;;;;;;;15.88;8.13;;;;;;;-144.99;100.00;57660.31;344645;28;2005;-69
2021/12/09 00:40:28;;;;;;;16.60;8.38;;;;;;;-144.99;100.00;57660.31;344958;28;1243;-68
2021/12/09 00:40:40;;;;;;;15.35;8.10;;;;;;;-144.99;100.00;57660.31;344177;28;2355;-68
2021/12/09 00:40:52;;;;;;;14.23;8.32;;;;;;;-144.99;100.00;57660.31;344927;28;1334;-68
2021/12/09 00:41:14;;;;;;;14.70;8.52;;;;;;;-144.99;100.00;57660.31;345046;28;1340;-68
2021/12/09 00:41:26;;;;;;;14.40;8.15;;;;;;;-144.99;100.00;57660.31;344431;28;1849;-68
2021/12/09 00:41:39;;;;;;;13.35;8.05;;;;;;;-144.99;100.00;57660.31;344362;28;1107;-68
2021/12/09 00:41:51;;;;;;;13.48;8.18;;;;;;;-144.99;100.00;57660.31;345028;28;1125;-69
2021/12/09 00:42:03;;;;;;;13.13;8.35;;;;;;;-144.99;100.00;57660.31;344954;28;1799;-69
2021/12/09 00:42:18;;;;;;;13.43;8.60;;;;;;;-144.99;100.00;57660.31;344988;28;1027;-68
2021/12/09 00:42:30;;;;;;;13.02;8.82;;;;;;;-144.99;100.00;57660.31;345013;28;1265;-69
2021/12/09 00:42:43;;;;;;;13.35;9.27;;;;;;;-144.99;100.00;57660.31;344901;28;1344;-68
2021/12/09 00:42:55;;;;;;;13.98;9.45;;;;;;;-144.99;100.00;57660.31;345092;28;1043;-68
2021/12/09 00:43:07;;;;;;;14.40;9.48;;;;;;;-144.99;100.00;57660.31;343890;28;1067;-68
2021/12/09 00:43:20;;;;;;;14.88;9.57;;;;;;;-144.99;100.00;57660.31;343666;28;1077;-69
2021/12/09 00:43:32;;;;;;;15.45;9.57;;;;;;;-144.99;100.00;57660.31;343720;28;1039;-69
2021/12/09 00:43:44;;;;;;;15.85;9.65;;;;;;;-144.99;100.00;57660.31;343483;28;2161;-70
2021/12/09 00:43:57;;;;;;;16.33;9.65;;;;;;;-144.99;100.00;57660.31;344754;28;1592;-68
2021/12/09 00:44:09;;;;;;;16.42;9.48;;;;;;;-144.99;100.00;57660.31;344188;28;2403;-69
2021/12/09 00:44:21;;;;;;;16.58;9.68;;;;;;;-144.99;100.00;57660.31;344747;28;1184;-69
2021/12/09 00:44:33;;;;;;;18.38;10.57;;;;;;;-144.99;100.00;57660.31;344924;28;1082;-68
2021/12/09 00:44:45;;;;;;;18.85;10.75;;;;;;;-144.99;100.00;57660.31;345198;28;1074;-68
2021/12/09 00:44:57;;;;;;;19.55;10.80;;;;;;;-144.99;100.00;57660.31;344992;28;1592;-69
2021/12/09 00:45:09;;;;;;;18.58;10.85;;;;;;;-144.99;100.00;57660.31;344251;28;2144;-69
2021/12/09 00:45:22;;;;;;;17.35;10.45;;;;;;;-144.99;100.00;57660.31;345052;28;1050;-69
2021/12/09 00:45:34;;;;;;;16.70;10.38;;;;;;;-144.99;100.00;57660.31;344794;28;1081;-70
2021/12/09 00:45:46;;;;;;;18.92;10.68;;;;;;;-144.99;100.00;57660.31;344417;28;2275;-70
2021/12/09 00:45:58;;;;;;;19.98;10.85;;;;;;;-144.99;100.00;57660.31;344715;28;1473;-70
2021/12/09 00:46:11;;;;;;;21.80;11.00;;;;;;;-144.99;100.00;57660.31;344993;28;1270;-69
2021/12/09 00:46:23;;;;;;;21.33;10.90;;;;;;;-144.99;100.00;57660.31;344810;28;1127;-68
2021/12/09 00:46:35;;;;;;;18.88;11.18;;;;;;;-144.99;100.00;57660.31;345170;28;1199;-68
2021/12/09 00:46:47;;;;;;;18.33;11.55;;;;;;;-144.99;100.00;57660.31;345159;28;1018;-69
2021/12/09 00:46:59;;;;;;;19.95;11.48;;;;;;;-144.99;100.00;57660.31;344279;28;2280;-69
2021/12/09 00:47:12;;;;;;;19.67;11.13;;;;;;;-144.99;100.00;57660.31;344949;28;1317;-69
2021/12/09 00:47:25;;;;;;;19.90;11.07;;;;;;;-144.99;100.00;57660.31;344754;28;2313;-69
2021/12/09 00:47:38;;;;;;;19.02;11.07;;;;;;;-144.99;100.00;57660.31;344275;28;2164;-69
2021/12/09 00:47:51;;;;;;;19.55;11.10;;;;;;;-144.99;100.00;57660.31;343618;28;1095;-69
2021/12/09 00:48:03;;;;;;;19.73;11.52;;;;;;;-144.99;100.00;57660.31;344371;28;1284;-68
2021/12/09 00:48:15;;;;;;;19.33;11.75;;;;;;;-144.99;100.00;57660.31;345061;28;1035;-69
2021/12/09 00:48:28;;;;;;;19.05;11.50;;;;;;;-144.99;100.00;57660.31;345014;28;1071;-68
2021/12/09 00:48:41;;;;;;;20.60;11.82;;;;;;;-144.99;100.00;57660.31;345227;28;1094;-69
2021/12/09 00:48:53;;;;;;;20.77;11.82;;;;;;;-144.99;100.00;57660.31;344373;28;1940;-68
2021/12/09 00:49:07;;;;;;;18.98;11.45;;;;;;;-144.99;100.00;57660.31;343768;28;2077;-69
2021/12/09 00:49:20;;;;;;;17.02;10.65;;;;;;;-144.99;100.00;57660.31;343600;28;1062;-68
2021/12/09 00:49:32;;;;;;;16.88;10.80;;;;;;;-144.99;100.00;57660.31;344026;28;2385;-68
2021/12/09 00:49:45;;;;;;;18.40;11.40;;;;;;;-144.99;100.00;57660.31;344891;28;1294;-68
2021/12/09 00:49:57;;;;;;;20.13;11.75;;;;;;;-144.99;100.00;57660.31;344801;28;1444;-69
2021/12/09 00:50:10;;;;;;;21.17;11.68;;;;;;;-144.99;100.00;57660.31;344693;28;1751;-69
2021/12/09 00:50:23;;;;;;;20.85;11.75;;;;;;;-144.99;100.00;57660.31;345037;28;1067;-68
2021/12/09 00:50:35;;;;;;;19.42;12.18;;;;;;;-144.99;100.00;57660.31;344783;28;1163;-69
2021/12/09 00:50:47;;;;;;;19.77;12.15;;;;;;;-144.99;100.00;57660.31;343801;28;1286;-68
2021/12/09 00:51:00;;;;;;;20.67;12.07;;;;;;;-144.99;100.00;57660.31;343513;28;1604;-68
2021/12/09 00:51:12;;;;;;;20.52;12.02;;;;;;;-144.99;100.00;57660.31;343030;28;2865;-69
2021/12/09 00:51:24;;;;;;;22.73;12.55;;;;;;;-144.99;100.00;57660.31;343494;28;1286;-69
2021/12/09 00:51:36;;;;;;;20.92;12.23;;;;;;;-144.99;100.00;57660.31;343583;28;1824;-68
2021/12/09 00:51:49;;;;;;;22.02;12.15;;;;;;;-144.99;100.00;57660.31;343530;28;1251;-68
2021/12/09 00:52:03;;;;;;;21.60;12.50;;;;;;;-144.99;100.00;57660.31;343520;28;1599;-68
2021/12/09 00:52:15;;;;;;;20.77;12.80;;;;;;;-144.99;100.00;57660.31;343738;28;1318;-69
2021/12/09 00:52:27;;;;;;;22.02;12.70;;;;;;;-144.99;100.00;57660.31;343116;28;1980;-69
2021/12/09 00:52:40;;;;;;;22.17;12.50;;;;;;;-144.99;100.00;57660.31;343413;28;1354;-69
2021/12/09 00:52:52;;;;;;;21.85;12.88;;;;;;;-144.99;100.00;57660.31;344462;28;1014;-68
2021/12/09 00:53:04;;;;;;;21.13;12.85;;;;;;;-144.99;100.00;57660.31;344510;28;1617;-68
2021/12/09 00:53:16;;;;;;;21.75;12.70;;;;;;;-144.99;100.00;57660.31;344501;28;1867;-68
2021/12/09 00:53:28;;;;;;;20.92;12.45;;;;;;;-144.99;100.00;57660.31;343843;28;2127;-69
2021/12/09 00:53:40;;;;;;;22.48;12.75;;;;;;;-144.99;100.00;57660.31;343887;28;1275;-68
2021/12/09 00:53:52;;;;;;;23.60;12.55;;;;;;;-144.99;100.00;57660.31;343701;28;2065;-69
2021/12/09 00:54:04;;;;;;;23.13;12.60;;;;;;;-144.99;100.00;57660.31;344629;28;1666;-68
2021/12/09 00:54:16;;;;;;;22.83;12.90;;;;;;;-144.99;100.00;57660.31;344632;28;1797;-69
2021/12/09 00:54:28;;;;;;;22.52;12.90;;;;;;;-144.99;100.00;57660.31;344118;28;2293;-68
2021/12/09 00:54:42;;;;;;;23.30;13.07;;;;;;;-144.99;100.00;57660.31;345037;28;1063;-69
2021/12/09 00:54:56;;;;;;;24.15;13.40;;;;;;;-144.99;100.00;57660.31;344631;28;2149;-68
2021/12/09 00:55:09;;;;;;;24.55;14.10;;;;;;;-144.99;100.00;57660.31;343665;28;1147;-68
2021/12/09 00:55:21;;;;;;;24.08;14.15;;;;;;;-144.99;100.00;57660.31;343842;28;1289;-69
2021/12/09 00:55:33;;;;;;;24.95;14.05;;;;;;;-144.99;100.00;57660.31;343485;28;1187;-68
2021/12/09 00:55:46;;;;;;;24.45;13.82;;;;;;;-144.99;100.00;57660.31;343840;28;1460;-69
2021/12/09 00:55:58;;;;;;;22.98;13.38;;;;;;;-144.99;100.00;57660.31;343609;28;1603;-69
2021/12/09 00:56:11;;;;;;;23.85;13.40;;;;;;;-144.99;100.00;57660.31;343398;28;2544;-69
2021/12/09 00:56:24;;;;;;;24.40;13.20;;;;;;;-144.99;100.00;57660.31;344591;28;2075;-68
2021/12/09 00:56:36;;;;;;;23.15;13.60;;;;;;;-144.99;100.00;57660.31;344499;28;1909;-69
2021/12/09 00:56:48;;;;;;;23.25;13.77;;;;;;;-144.99;100.00;57660.31;344987;28;1388;-69
2021/12/09 00:57:00;;;;;;;24.25;14.27;;;;;;;-144.99;100.00;57660.31;344800;28;1205;-68
2021/12/09 00:57:12;;;;;;;25.42;14.63;;;;;;;-144.99;100.00;57660.31;345003;28;1395;-68
2021/12/09 00:57:24;;;;;;;26.30;14.25;;;;;;;-144.99;100.00;57660.31;345046;28;1196;-68
2021/12/09 00:57:39;;;;;;;27.17;14.50;;;;;;;-144.99;100.00;57660.31;344489;28;2191;-68
2021/12/09 00:57:52;;;;;;;25.13;14.68;;;;;;;-144.99;100.00;57660.31;344011;28;2568;-69
2021/12/09 00:58:04;;;;;;;23.92;14.75;;;;;;;-144.99;100.00;57660.31;344786;28;1937;-68
2021/12/09 00:58:16;;;;;;;22.95;14.70;;;;;;;-144.99;100.00;57660.31;345015;28;1043;-68
2021/12/09 00:58:29;;;;;;;23.33;14.57;;;;;;;-144.99;100.00;57660.31;345184;28;1087;-69
2021/12/09 00:58:42;;;;;;;23.80;14.30;;;;;;;-144.99;100.00;57660.31;345093;28;1337;-69
2021/12/09 00:58:55;;;;;;;25.50;14.30;;;;;;;-144.99;100.00;57660.31;345204;28;1316;-68
2021/12/09 00:59:07;;;;;;;24.25;14.15;;;;;;;-144.99;100.00;57660.31;345113;28;1060;-69
2021/12/09 00:59:19;;;;;;;21.92;13.48;;;;;;;-144.99;100.00;57660.31;345079;28;1205;-69
2021/12/09 00:59:31;;;;;;;22.88;13.63;;;;;;;-144.99;100.00;57660.31;344098;28;2316;-68
2021/12/09 00:59:44;;;;;;;25.98;14.10;;;;;;;-144.99;100.00;57660.31;345108;28;1959;-69
2021/12/09 00:59:56;;;;;;;27.02;14.20;;;;;;;-144.99;100.00;57660.31;344364;28;2518;-69
2021/12/09 01:00:14;;;;;;;26.35;14.40;;;;;;;-144.99;100.00;57660.31;343165;28;4787;-69
2021/12/09 01:00:27;;;;;;;24.77;14.52;;;;;;;-144.99;100.00;57660.31;343393;28;5623;-68
2021/12/09 01:00:39;;;;;;;23.63;14.38;;;;;;;-144.99;100.00;57660.31;343850;28;1067;-68
2021/12/09 01:00:52;;;;;;;24.33;14.27;;;;;;;-144.99;100.00;57660.31;343461;28;5576;-69
2021/12/09 01:01:05;;;;;;;25.63;14.68;;;;;;;-144.99;100.00;57660.31;344622;28;1630;-68
2021/12/09 01:01:18;;;;;;;25.60;14.95;;;;;;;-144.99;100.00;57660.31;345014;28;1099;-68